createdAt,value
2022-11-22T00:01:21.934Z,40.17
2022-11-22T00:06:43.732Z,38.63
2022-11-22T00:12:05.805Z,41.65
2022-11-22T00:17:27.946Z,41.88
2022-11-22T00:22:49.762Z,39.05
2022-11-22T00:28:11.686Z,39.53
2022-11-22T00:33:33.800Z,39.85
2022-11-22T00:38:55.621Z,38.05
2022-11-22T00:44:17.449Z,35.72
2022-11-22T00:49:39.342Z,40.38
2022-11-22T00:55:01.284Z,38.15
2022-11-22T01:00:23.152Z,36.97
2022-11-22T01:05:45.101Z,39.33
2022-11-22T01:11:06.914Z,37.30
2022-11-22T01:16:28.766Z,37.90
2022-11-22T01:21:50.556Z,35.30
2022-11-22T01:27:12.402Z,35.88
2022-11-22T01:32:34.402Z,32.95
2022-11-22T01:37:56.219Z,36.17
2022-11-22T01:43:23.319Z,36.53
2022-11-22T01:48:53.598Z,36.17
2022-11-22T01:54:21.958Z,36.20
2022-11-22T01:59:48.660Z,35.95
2022-11-22T02:05:17.799Z,34.85
2022-11-22T02:10:44.472Z,36.72
2022-11-22T02:16:07.245Z,35.83
2022-11-22T02:21:29.408Z,36.58
2022-11-22T02:26:51.254Z,37.15
2022-11-22T02:32:13.095Z,33.83
2022-11-22T02:37:34.963Z,35.80
2022-11-22T02:43:03.059Z,34.72
2022-11-22T02:48:25.051Z,35.95
2022-11-22T02:53:49.159Z,35.95
2022-11-22T02:59:10.996Z,36.75
2022-11-22T03:04:32.814Z,35.63
2022-11-22T03:09:54.608Z,35.35
2022-11-22T03:15:16.456Z,36.00
2022-11-22T03:20:38.265Z,36.45
2022-11-22T03:26:00.228Z,36.17
2022-11-22T03:31:22.228Z,37.88
2022-11-22T03:36:44.129Z,37.15
2022-11-22T03:42:05.965Z,38.30
2022-11-22T03:47:27.738Z,37.38
2022-11-22T03:52:49.570Z,37.92
2022-11-22T03:58:11.425Z,38.45
2022-11-22T04:03:33.270Z,38.08
2022-11-22T04:08:55.142Z,37.38
2022-11-22T04:14:17.042Z,35.65
2022-11-22T04:19:38.855Z,38.17
2022-11-22T04:25:00.637Z,38.08
2022-11-22T04:30:23.395Z,35.38
2022-11-22T04:35:45.768Z,38.95
2022-11-22T04:41:07.558Z,35.72
2022-11-22T04:46:29.521Z,35.88
2022-11-22T04:51:51.370Z,34.65
2022-11-22T04:57:13.232Z,36.33
2022-11-22T05:02:35.011Z,38.45
2022-11-22T05:07:58.879Z,40.47
2022-11-22T05:13:23.031Z,37.17
2022-11-22T05:18:44.825Z,37.45
2022-11-22T05:24:07.006Z,37.13
2022-11-22T05:29:28.893Z,36.30
2022-11-22T05:34:50.880Z,36.05
2022-11-22T05:40:13.845Z,35.85
2022-11-22T05:45:35.642Z,36.00
2022-11-22T05:50:57.427Z,38.55
2022-11-22T05:56:21.626Z,36.53
2022-11-22T06:01:43.466Z,34.65
2022-11-22T06:07:09.780Z,39.38
2022-11-22T06:12:32.079Z,39.28
2022-11-22T06:17:53.845Z,41.75
2022-11-22T06:23:15.648Z,39.53
2022-11-22T06:28:39.072Z,41.75
2022-11-22T06:34:01.160Z,39.42
2022-11-22T06:39:23.087Z,42.88
2022-11-22T06:44:44.893Z,41.22
2022-11-22T06:50:07.095Z,46.50
2022-11-22T06:55:49.647Z,44.30
2022-11-22T07:01:14.207Z,42.38
2022-11-22T07:06:38.096Z,46.00
2022-11-22T07:11:59.915Z,44.15
2022-11-22T07:17:21.876Z,40.50
2022-11-22T07:22:43.621Z,44.53
2022-11-22T07:28:05.375Z,44.25
2022-11-22T07:33:27.483Z,41.65
2022-11-22T07:38:50.472Z,43.85
2022-11-22T07:44:12.283Z,44.13
2022-11-22T07:49:34.161Z,43.80
2022-11-22T07:54:55.950Z,48.13
2022-11-22T08:00:18.362Z,42.70
2022-11-22T08:05:40.155Z,45.88
2022-11-22T08:11:02.919Z,46.28
2022-11-22T08:16:24.748Z,46.42
2022-11-22T08:21:48.383Z,45.33
2022-11-22T08:27:10.312Z,42.40
2022-11-22T08:32:32.135Z,50.85
2022-11-22T08:37:57.674Z,42.70
2022-11-22T08:43:19.529Z,43.63
2022-11-22T08:48:41.378Z,43.67
2022-11-22T09:00:18.087Z,44.55
2022-11-22T09:11:21.921Z,43.33
2022-11-22T09:16:43.749Z,43.78
2022-11-22T09:22:05.602Z,43.47
2022-11-22T09:27:27.522Z,40.72
2022-11-22T09:32:49.337Z,43.05
2022-11-22T09:38:11.178Z,43.58
2022-11-22T09:43:51.545Z,42.72
2022-11-22T09:49:37.614Z,42.40
2022-11-22T09:55:04.020Z,45.05
2022-11-22T10:00:28.629Z,43.15
2022-11-22T10:05:58.277Z,42.03
2022-11-22T10:11:36.258Z,45.95
2022-11-22T10:17:08.615Z,42.30
2022-11-22T10:22:30.674Z,37.75
2022-11-22T10:28:02.811Z,41.38
2022-11-22T10:33:48.393Z,41.53
2022-11-22T10:39:27.856Z,40.10
2022-11-22T10:44:53.313Z,41.95
2022-11-22T10:50:27.971Z,44.35
2022-11-22T10:56:25.823Z,38.65
2022-11-22T11:02:12.424Z,39.50
2022-11-22T11:07:34.966Z,37.88
2022-11-22T11:13:01.818Z,36.20
2022-11-22T11:18:38.292Z,40.28
2022-11-22T11:29:37.387Z,36.08
2022-11-22T11:35:05.929Z,33.83
2022-11-22T11:40:31.552Z,36.35
2022-11-22T11:45:53.402Z,35.97
2022-11-22T11:51:43.016Z,34.47
2022-11-22T11:57:05.779Z,34.38
2022-11-22T12:02:38.866Z,33.42
2022-11-22T12:08:01.562Z,33.78
2022-11-22T12:13:31.699Z,31.35
2022-11-22T12:18:59.528Z,33.92
2022-11-22T12:24:52.241Z,31.48
2022-11-22T12:30:17.801Z,28.33
2022-11-22T12:35:44.510Z,29.73
2022-11-22T12:41:11.679Z,27.02
2022-11-22T12:46:40.195Z,29.33
2022-11-22T12:52:22.329Z,25.23
2022-11-22T12:57:52.322Z,22.13
2022-11-22T13:03:19.989Z,22.25
2022-11-22T13:09:01.917Z,18.33
2022-11-22T13:14:32.545Z,22.08
2022-11-22T13:20:00.526Z,17.48
2022-11-22T13:25:28.209Z,20.58
2022-11-22T13:31:05.367Z,14.00
2022-11-22T13:36:27.100Z,17.73
2022-11-22T13:42:00.463Z,16.10
2022-11-22T13:47:22.227Z,16.88
2022-11-22T13:52:51.998Z,19.30
2022-11-22T13:58:25.765Z,18.35
2022-11-22T14:03:47.572Z,15.82
2022-11-22T14:09:37.393Z,16.65
2022-11-22T14:15:23.487Z,19.25
2022-11-22T14:21:07.316Z,21.20
2022-11-22T14:27:06.932Z,15.73
2022-11-22T14:32:42.764Z,18.65
2022-11-22T14:38:07.533Z,20.73
2022-11-22T14:43:32.671Z,22.35
2022-11-22T14:49:25.935Z,21.13
2022-11-22T14:54:50.284Z,18.30
2022-11-22T15:00:22.193Z,23.83
2022-11-22T15:09:12.945Z,21.15
2022-11-22T15:12:20.664Z,21.67
2022-11-22T15:58:12.965Z,24.55
2022-11-22T16:03:39.590Z,24.60
2022-11-22T16:09:05.096Z,23.85
2022-11-22T16:14:50.238Z,24.25
2022-11-22T16:20:23.926Z,22.73
2022-11-22T16:25:48.673Z,25.35
2022-11-22T16:31:18.379Z,24.02
2022-11-22T16:36:40.159Z,24.80
2022-11-22T16:42:01.971Z,19.23
2022-11-22T16:47:23.751Z,25.42
2022-11-22T16:52:46.733Z,26.02
2022-11-22T16:58:18.159Z,27.45
2022-11-22T17:03:40.165Z,27.65
2022-11-22T17:09:03.687Z,26.17
2022-11-22T17:14:25.526Z,25.35
2022-11-22T17:19:54.884Z,22.33
2022-11-22T17:25:16.816Z,20.70
2022-11-22T17:30:38.705Z,27.77
2022-11-22T17:36:00.632Z,29.33
2022-11-22T17:41:23.402Z,27.63
2022-11-22T17:46:45.348Z,29.77
2022-11-22T17:52:07.144Z,29.55
2022-11-22T17:57:28.952Z,29.38
2022-11-22T18:02:50.831Z,26.45
2022-11-22T18:08:12.679Z,31.50
2022-11-22T18:13:36.697Z,31.75
2022-11-22T18:18:58.788Z,32.22
2022-11-22T18:24:20.764Z,31.08
2022-11-22T18:29:43.265Z,30.10
2022-11-22T18:35:05.382Z,27.38
2022-11-22T18:40:27.217Z,31.38
2022-11-22T18:45:49.047Z,33.47
2022-11-22T18:51:10.832Z,28.67
2022-11-22T18:56:32.626Z,32.38
2022-11-22T19:01:54.586Z,29.08
2022-11-22T19:07:16.481Z,30.73
2022-11-22T19:12:38.301Z,27.25
2022-11-22T19:18:00.098Z,31.58
2022-11-22T19:23:21.955Z,31.20
2022-11-22T19:28:43.848Z,31.05
2022-11-22T19:34:05.812Z,34.60
2022-11-22T19:39:27.704Z,33.28
2022-11-22T19:44:49.540Z,32.85
2022-11-22T19:50:11.331Z,32.97
2022-11-22T19:55:34.231Z,33.22
2022-11-22T20:00:56.034Z,32.67
2022-11-22T20:06:18.171Z,33.50
2022-11-22T20:11:41.484Z,30.23
2022-11-22T20:17:03.303Z,33.60
2022-11-22T20:22:25.123Z,35.10
2022-11-22T20:27:46.921Z,33.20
2022-11-22T20:33:08.752Z,31.00
2022-11-22T20:38:34.403Z,30.88
2022-11-22T20:43:56.745Z,32.70
2022-11-22T20:49:18.786Z,28.52
2022-11-22T20:54:40.596Z,29.50
2022-11-22T21:00:02.430Z,32.10
2022-11-22T21:05:24.231Z,33.83
2022-11-22T21:10:46.092Z,33.75
2022-11-22T21:16:22.140Z,32.15
2022-11-22T21:21:44.906Z,33.42
2022-11-22T21:27:06.697Z,34.13
2022-11-22T21:32:31.167Z,34.10
2022-11-22T21:37:54.330Z,34.97
2022-11-22T21:43:16.119Z,33.92
2022-11-22T21:48:37.973Z,30.15
2022-11-22T21:54:01.123Z,35.00
2022-11-22T21:59:22.916Z,28.17
2022-11-22T22:04:44.763Z,28.40
2022-11-22T22:10:06.861Z,35.13
2022-11-22T22:15:28.723Z,34.65
2022-11-22T22:20:59.041Z,32.17
2022-11-22T22:26:20.805Z,32.22
2022-11-22T22:31:42.599Z,32.97
2022-11-22T22:37:04.408Z,34.83
2022-11-22T22:42:26.203Z,32.80
2022-11-22T22:47:48.004Z,30.83
2022-11-22T22:53:10.026Z,34.30
2022-11-22T22:58:31.778Z,32.58
2022-11-22T23:03:58.711Z,31.30
2022-11-22T23:09:20.662Z,33.03
2022-11-22T23:14:42.425Z,31.73
2022-11-22T23:20:04.510Z,33.00
2022-11-22T23:25:26.301Z,28.80
2022-11-22T23:30:48.057Z,31.48
2022-11-22T23:36:12.130Z,34.45
2022-11-22T23:41:33.944Z,27.25
2022-11-22T23:46:55.738Z,32.22
2022-11-22T23:52:17.501Z,33.60
2022-11-22T23:57:39.360Z,35.28
